Observation data for Childress on 03/13/2018      Previous  Date       Current Mesonet Observations  Soil Data  Daily Summary Page  Observations in Plain Language
KCXS 130505Z 14008KT 06/M05 A3025 RMK A01 T00571053  RH  045%=      5-min Rain = 0
KCXS 130510Z 15008KT 06/M05 A3025 RMK A01 T00571053  RH  045%=      5-min Rain = 0
KCXS 130515Z 15008KT 06/M05 A3025 RMK A01 T00581052  RH  045%=      5-min Rain = 0
KCXS 130520Z 15008KT 06/M05 A3025 RMK A01 T00601052  RH  045%=      5-min Rain = 0
KCXS 130525Z 15007KT 06/M05 A3025 RMK A01 T00611051  RH  045%=      5-min Rain = 0
KCXS 130530Z 15007KT 06/M05 A3025 RMK A01 T00611051  RH  045%=      5-min Rain = 0
KCXS 130535Z 14007KT 06/M05 A3025 RMK A01 T00621050  RH  044%=      5-min Rain = 0
KCXS 130540Z 15007KT 06/M05 A3025 RMK A01 T00631050  RH  044%=      5-min Rain = 0
KCXS 130545Z 15006KT 06/M05 A3025 RMK A01 T00621050  RH  044%=      5-min Rain = 0
KCXS 130550Z 15007KT 06/M05 A3025 RMK A01 T00621050  RH  045%=      5-min Rain = 0
KCXS 130555Z 15007KT 07/M05 A3025 RMK A01 T00651049  RH  044%=      5-min Rain = 0
KCXS 130600Z 15007KT 07/M05 A3025 RMK A01 T00671049  RH  044%=      5-min Rain = 0
KCXS 130605Z 15007KT 07/M05 A3025 RMK A01 T00671049  RH  043%=      5-min Rain = 0
KCXS 130610Z 15007KT 07/M05 A3025 RMK A01 T00671049  RH  043%=      5-min Rain = 0
KCXS 130615Z 15007KT 07/M05 A3025 RMK A01 T00681049  RH  043%=      5-min Rain = 0
KCXS 130620Z 14007KT 07/M05 A3025 RMK A01 T00681049  RH  043%=      5-min Rain = 0
KCXS 130625Z 14007KT 07/M05 A3025 RMK A01 T00681050  RH  043%=      5-min Rain = 0
KCXS 130630Z 15007KT 07/M05 A3025 RMK A01 T00671051  RH  043%=      5-min Rain = 0
KCXS 130635Z 15007KT 07/M05 A3025 RMK A01 T00651052  RH  043%=      5-min Rain = 0
KCXS 130640Z 15007KT 06/M05 A3026 RMK A01 T00621053  RH  044%=      5-min Rain = 0
KCXS 130645Z 15007KT 06/M05 A3026 RMK A01 T00591053  RH  044%=      5-min Rain = 0
KCXS 130650Z 15007KT 06/M05 A3026 RMK A01 T00571053  RH  045%=      5-min Rain = 0
KCXS 130655Z 15007KT 06/M05 A3026 RMK A01 T00551054  RH  046%=      5-min Rain = 0
KCXS 130700Z 14007KT 05/M05 A3026 RMK A01 T00511054  RH  047%=      5-min Rain = 0
KCXS 130705Z 12006KT 05/M05 A3026 RMK A01 T00471054  RH  048%=      5-min Rain = 0
KCXS 130710Z 12007KT 05/M05 A3026 RMK A01 T00461054  RH  048%=      5-min Rain = 0
KCXS 130715Z 12006KT 05/M05 A3026 RMK A01 T00461054  RH  048%=      5-min Rain = 0
KCXS 130720Z 11005KT 04/M06 A3026 RMK A01 T00441055  RH  048%=      5-min Rain = 0
KCXS 130725Z 11006KT 04/M06 A3026 RMK A01 T00391056  RH  050%=      5-min Rain = 0
KCXS 130730Z 11006KT 04/M06 A3026 RMK A01 T00371056  RH  051%=      5-min Rain = 0
KCXS 130735Z 10006KT 04/M06 A3026 RMK A01 T00381055  RH  051%=      5-min Rain = 0
KCXS 130740Z 09007KT 04/M06 A3026 RMK A01 T00391055  RH  050%=      5-min Rain = 0
KCXS 130745Z 10008KT 04/M05 A3026 RMK A01 T00411053  RH  051%=      5-min Rain = 0
KCXS 130750Z 09008KT 04/M05 A3026 RMK A01 T00421052  RH  051%=      5-min Rain = 0
KCXS 130755Z 09008KT 04/M05 A3026 RMK A01 T00421052  RH  050%=      5-min Rain = 0
KCXS 130800Z 08008KT 04/M05 A3026 RMK A01 T00431053  RH  050%=      5-min Rain = 0
KCXS 130805Z 08008KT 04/M05 A3026 RMK A01 T00411053  RH  050%=      5-min Rain = 0
KCXS 130810Z 08007KT 04/M05 A3026 RMK A01 T00391053  RH  051%=      5-min Rain = 0
KCXS 130815Z 08008KT 04/M05 A3026 RMK A01 T00381053  RH  052%=      5-min Rain = 0
KCXS 130820Z 08008KT 04/M05 A3026 RMK A01 T00371052  RH  052%=      5-min Rain = 0
KCXS 130825Z 08008KT 04/M05 A3026 RMK A01 T00361052  RH  053%=      5-min Rain = 0
KCXS 130830Z 09008KT 04/M05 A3026 RMK A01 T00361051  RH  053%=      5-min Rain = 0
KCXS 130835Z 09008KT 04/M05 A3026 RMK A01 T00371050  RH  053%=      5-min Rain = 0
KCXS 130840Z 09008KT 04/M05 A3026 RMK A01 T00361051  RH  053%=      5-min Rain = 0
KCXS 130845Z 10009KT 03/M05 A3026 RMK A01 T00341052  RH  053%=      5-min Rain = 0
KCXS 130850Z 10009KT 03/M05 A3026 RMK A01 T00331053  RH  054%=      5-min Rain = 0
KCXS 130855Z 10009KT 03/M05 A3026 RMK A01 T00331053  RH  054%=      5-min Rain = 0
KCXS 130900Z 11009KT 03/M05 A3025 RMK A01 T00311053  RH  054%=      5-min Rain = 0
KCXS 130905Z 11008KT 03/M05 A3025 RMK A01 T00301053  RH  055%=      5-min Rain = 0
KCXS 130910Z 11008KT 03/M05 A3026 RMK A01 T00301052  RH  055%=      5-min Rain = 0
KCXS 130915Z 10008KT 03/M05 A3026 RMK A01 T00291052  RH  056%=      5-min Rain = 0
KCXS 130920Z 09008KT 03/M05 A3026 RMK A01 T00271052  RH  056%=      5-min Rain = 0
KCXS 130925Z 08007KT 03/M05 A3026 RMK A01 T00251054  RH  056%=      5-min Rain = 0
KCXS 130930Z 07007KT 02/M06 A3027 RMK A01 T00241055  RH  056%=      5-min Rain = 0
KCXS 130935Z 07006KT 03/M06 A3027 RMK A01 T00251055  RH  055%=      5-min Rain = 0
KCXS 130940Z 06005KT 03/M06 A3027 RMK A01 T00271057  RH  054%=      5-min Rain = 0
KCXS 130945Z 06005KT 03/M06 A3027 RMK A01 T00271058  RH  054%=      5-min Rain = 0
KCXS 130950Z 07004KT 03/M06 A3027 RMK A01 T00271058  RH  053%=      5-min Rain = 0
KCXS 130955Z 08004KT 03/M06 A3027 RMK A01 T00291058  RH  053%=      5-min Rain = 0
KCXS 131000Z 09003KT 03/M06 A3027 RMK A01 T00301060  RH  052%=      5-min Rain = 0
KCXS 131005Z 12004KT 03/M06 A3027 RMK A01 T00301061  RH  051%=      5-min Rain = 0
KCXS 131010Z 13005KT 03/M06 A3027 RMK A01 T00281061  RH  052%=      5-min Rain = 0
KCXS 131015Z 12005KT 03/M06 A3027 RMK A01 T00261061  RH  053%=      5-min Rain = 0
KCXS 131020Z 11005KT 03/M06 A3027 RMK A01 T00261061  RH  053%=      5-min Rain = 0
KCXS 131025Z 11005KT 03/M06 A3027 RMK A01 T00261062  RH  053%=      5-min Rain = 0
KCXS 131030Z 11005KT 03/M06 A3027 RMK A01 T00271061  RH  052%=      5-min Rain = 0
KCXS 131035Z 10005KT 03/M06 A3027 RMK A01 T00261062  RH  052%=      5-min Rain = 0
KCXS 131040Z 10005KT 03/M06 A3028 RMK A01 T00261062  RH  052%=      5-min Rain = 0
KCXS 131045Z 10006KT 02/M06 A3028 RMK A01 T00241062  RH  053%=      5-min Rain = 0
KCXS 131050Z 08005KT 02/M06 A3028 RMK A01 T00231062  RH  054%=      5-min Rain = 0
KCXS 131055Z 06004KT 02/M06 A3028 RMK A01 T00231062  RH  054%=      5-min Rain = 0
KCXS 131100Z 01003KT 02/M06 A3028 RMK A01 T00181059  RH  057%=      5-min Rain = 0
KCXS 131105Z 02003KT 01/M06 A3029 RMK A01 T00141056  RH  060%=      5-min Rain = 0
KCXS 131110Z 05003KT 01/M05 A3029 RMK A01 T00131054  RH  061%=      5-min Rain = 0
KCXS 131115Z 06003KT 01/M05 A3029 RMK A01 T00141054  RH  061%=      5-min Rain = 0
KCXS 131120Z 04004KT 01/M05 A3029 RMK A01 T00141054  RH  061%=      5-min Rain = 0
KCXS 131125Z 04004KT 01/M05 A3029 RMK A01 T00131054  RH  061%=      5-min Rain = 0
KCXS 131130Z 03004KT 01/M05 A3029 RMK A01 T00131054  RH  061%=      5-min Rain = 0
KCXS 131135Z 01005KT 01/M06 A303 RMK A01 T00111055  RH  062%=      5-min Rain = 0
KCXS 131140Z 01005KT 01/M06 A303 RMK A01 T00081055  RH  063%=      5-min Rain = 0
KCXS 131145Z 01006KT 01/M05 A303 RMK A01 T00061054  RH  064%=      5-min Rain = 0
KCXS 131150Z 01005KT 01/M05 A303 RMK A01 T00051054  RH  065%=      5-min Rain = 0
KCXS 131155Z 02005KT 01/M05 A303 RMK A01 T00061053  RH  065%=      5-min Rain = 0
KCXS 131200Z 04004KT 01/M05 A303 RMK A01 T00071052  RH  065%=      5-min Rain = 0
KCXS 131205Z 05005KT 01/M05 A303 RMK A01 T00101051  RH  064%=      5-min Rain = 0
KCXS 131210Z 06005KT 02/M05 A303 RMK A01 T00151051  RH  062%=      5-min Rain = 0
KCXS 131215Z 03005KT 02/M05 A3031 RMK A01 T00151052  RH  061%=      5-min Rain = 0
KCXS 131220Z 01004KT 01/M05 A3031 RMK A01 T00121052  RH  063%=      5-min Rain = 0
KCXS 131225Z 01004KT 01/M05 A3032 RMK A01 T00111051  RH  063%=      5-min Rain = 0
KCXS 131230Z 01004KT 01/M05 A3032 RMK A01 T00111051  RH  063%=      5-min Rain = 0
KCXS 131235Z 03005KT 01/M05 A3032 RMK A01 T00111051  RH  063%=      5-min Rain = 0
KCXS 131240Z 03006KT 01/M05 A3032 RMK A01 T00111052  RH  063%=      5-min Rain = 0
KCXS 131245Z 02006KT 01/M05 A3032 RMK A01 T00091052  RH  064%=      5-min Rain = 0
KCXS 131250Z 02006KT 01/M05 A3032 RMK A01 T00071052  RH  065%=      5-min Rain = 0
KCXS 131255Z 02007KT 01/M05 A3032 RMK A01 T00061053  RH  065%=      5-min Rain = 0
KCXS 131300Z 02007KT 01/M05 A3032 RMK A01 T00061053  RH  065%=      5-min Rain = 0
KCXS 131305Z 02007KT 01/M05 A3033 RMK A01 T00051053  RH  065%=      5-min Rain = 0
KCXS 131310Z 02007KT 00/M05 A3033 RMK A01 T00041054  RH  065%=      5-min Rain = 0
KCXS 131315Z 02006KT 00/M05 A3033 RMK A01 T00041054  RH  065%=      5-min Rain = 0
KCXS 131320Z 01006KT 00/M05 A3033 RMK A01 T00041054  RH  065%=      5-min Rain = 0
KCXS 131325Z 01006KT 01/M05 A3034 RMK A01 T00051053  RH  065%=      5-min Rain = 0
KCXS 131330Z 01005KT 01/M05 A3034 RMK A01 T00071053  RH  064%=      5-min Rain = 0
KCXS 131335Z 01005KT 01/M05 A3034 RMK A01 T00101052  RH  063%=      5-min Rain = 0
KCXS 131340Z 01005KT 01/M05 A3034 RMK A01 T00141052  RH  062%=      5-min Rain = 0
KCXS 131345Z 01005KT 02/M05 A3034 RMK A01 T00171051  RH  061%=      5-min Rain = 0
KCXS 131350Z 01004KT 02/M05 A3034 RMK A01 T00201051  RH  059%=      5-min Rain = 0
KCXS 131355Z 01004KT 02/M05 A3035 RMK A01 T00231051  RH  059%=      5-min Rain = 0
KCXS 131400Z 00003KT 03/M05 A3035 RMK A01 T00261050  RH  057%=      5-min Rain = 0
KCXS 131405Z 36003KT 03/M05 A3035 RMK A01 T00301049  RH  057%=      5-min Rain = 0
KCXS 131410Z 01003KT 03/M05 A3035 RMK A01 T00341048  RH  055%=      5-min Rain = 0
KCXS 131415Z 02004KT 04/M05 A3035 RMK A01 T00371049  RH  053%=      5-min Rain = 0
KCXS 131420Z 00004KT 04/M05 A3036 RMK A01 T00401047  RH  053%=      5-min Rain = 0
KCXS 131425Z 00005KT 04/M05 A3036 RMK A01 T00431049  RH  051%=      5-min Rain = 0
KCXS 131430Z 02005KT 05/M05 A3036 RMK A01 T00451049  RH  050%=      5-min Rain = 0
KCXS 131435Z 02006KT 05/M05 A3036 RMK A01 T00501050  RH  048%=      5-min Rain = 0
KCXS 131440Z 01006KT 05/M05 A3037 RMK A01 T00531054  RH  046%=      5-min Rain = 0
KCXS 131445Z 01006KT 06/M06 A3037 RMK A01 T00561057  RH  044%=      5-min Rain = 0
KCXS 131450Z 03006KT 06/M06 A3037 RMK A01 T00581060  RH  042%=      5-min Rain = 0
KCXS 131455Z 02005KT 06/M06 A3037 RMK A01 T00621059  RH  042%=      5-min Rain = 0
KCXS 131500Z 03005KT 07/M06 A3037 RMK A01 T00661059  RH  041%=      5-min Rain = 0
KCXS 131505Z 03004KT 07/M06 A3037 RMK A01 T00711059  RH  039%=      5-min Rain = 0
KCXS 131510Z 04004KT 07/M06 A3038 RMK A01 T00711061  RH  039%=      5-min Rain = 0
KCXS 131515Z 05004KT 07/M06 A3038 RMK A01 T00711061  RH  038%=      5-min Rain = 0
KCXS 131520Z 08005KT 07/M06 A3038 RMK A01 T00731064  RH  037%=      5-min Rain = 0
KCXS 131525Z 08003KT 08/M06 A3038 RMK A01 T00751062  RH  037%=      5-min Rain = 0
KCXS 131530Z 08004KT 08/M06 A3038 RMK A01 T00801061  RH  036%=      5-min Rain = 0
KCXS 131535Z 09005KT 08/M06 A3038 RMK A01 T00821062  RH  035%=      5-min Rain = 0
KCXS 131540Z 10005KT 09/M06 A3038 RMK A01 T00851064  RH  034%=      5-min Rain = 0
KCXS 131545Z 11005KT 09/M06 A3038 RMK A01 T00881063  RH  034%=      5-min Rain = 0
KCXS 131550Z 10005KT 09/M06 A3038 RMK A01 T00921062  RH  033%=      5-min Rain = 0
KCXS 131555Z 08005KT 09/M06 A3038 RMK A01 T00941064  RH  032%=      5-min Rain = 0
KCXS 131600Z 10006KT 10/M07 A3038 RMK A01 T00971068  RH  030%=      5-min Rain = 0
KCXS 131605Z 10006KT 10/M07 A3038 RMK A01 T01011067  RH  030%=      5-min Rain = 0
KCXS 131610Z 13007KT 10/M07 A3038 RMK A01 T01041067  RH  029%=      5-min Rain = 0
KCXS 131615Z 11005KT 10/M07 A3038 RMK A01 T01041067  RH  029%=      5-min Rain = 0
KCXS 131620Z 11005KT 11/M07 A3038 RMK A01 T01081068  RH  028%=      5-min Rain = 0
KCXS 131625Z 10005G10KT 11/M07 A3038 RMK A01 T01141069  RH  027%=      5-min Rain = 0
KCXS 131630Z 12007KT 11/M07 A3038 RMK A01 T01131069  RH  027%=      5-min Rain = 0
KCXS 131635Z 11005G10KT 11/M07 A3038 RMK A01 T01131071  RH  027%=      5-min Rain = 0
KCXS 131640Z 09005G10KT 11/M07 A3038 RMK A01 T01141074  RH  026%=      5-min Rain = 0
KCXS 131645Z 07007KT 12/M07 A3038 RMK A01 T01181074  RH  025%=      5-min Rain = 0
KCXS 131650Z 08005KT 12/M08 A3038 RMK A01 T01211075  RH  025%=      5-min Rain = 0
KCXS 131655Z 10006KT 12/M08 A3038 RMK A01 T01221076  RH  024%=      5-min Rain = 0
KCXS 131700Z 11006KT 12/M07 A3038 RMK A01 T01231074  RH  025%=      5-min Rain = 0
KCXS 131705Z 09008KT 13/M07 A3037 RMK A01 T01261074  RH  024%=      5-min Rain = 0
KCXS 131710Z 10004KT 13/M07 A3037 RMK A01 T01291072  RH  024%=      5-min Rain = 0
KCXS 131715Z 10007G13KT 13/M07 A3037 RMK A01 T01301074  RH  023%=      5-min Rain = 0
KCXS 131720Z 07005G10KT 13/M07 A3037 RMK A01 T01321073  RH  023%=      5-min Rain = 0
KCXS 131725Z 12005G10KT 13/M07 A3037 RMK A01 T01341073  RH  023%=      5-min Rain = 0
KCXS 131730Z 11008KT 14/M07 A3037 RMK A01 T01351074  RH  023%=      5-min Rain = 0
KCXS 131735Z 10007G12KT 13/M07 A3037 RMK A01 T01311074  RH  023%=      5-min Rain = 0
KCXS 131740Z 09007G12KT 13/M08 A3037 RMK A01 T01331075  RH  023%=      5-min Rain = 0
KCXS 131745Z 09008KT 14/M08 A3036 RMK A01 T01351075  RH  023%=      5-min Rain = 0
KCXS 131750Z 10004G11KT 13/M07 A3036 RMK A01 T01321074  RH  023%=      5-min Rain = 0
KCXS 131755Z 07006G11KT 13/M07 A3036 RMK A01 T01341073  RH  023%=      5-min Rain = 0
KCXS 131800Z 10006G11KT 14/M07 A3036 RMK A01 T01391072  RH  022%=      5-min Rain = 0
KCXS 131805Z 08005KT 14/M07 A3036 RMK A01 T01381071  RH  023%=      5-min Rain = 0
KCXS 131810Z 08007KT 14/M07 A3035 RMK A01 T01411072  RH  022%=      5-min Rain = 0
KCXS 131815Z 12005KT 14/M07 A3035 RMK A01 T01371072  RH  023%=      5-min Rain = 0
KCXS 131820Z 10004G9KT 14/M07 A3035 RMK A01 T01401072  RH  022%=      5-min Rain = 0
KCXS 131825Z 16005KT 14/M07 A3035 RMK A01 T01421072  RH  022%=      5-min Rain = 0
KCXS 131830Z 13008KT 14/M07 A3035 RMK A01 T01441070  RH  022%=      5-min Rain = 0
KCXS 131835Z 12007KT 15/M07 A3034 RMK A01 T01501069  RH  021%=      5-min Rain = 0
KCXS 131840Z 11006G13KT 15/M07 A3034 RMK A01 T01481070  RH  022%=      5-min Rain = 0
KCXS 131845Z 09005KT 15/M07 A3033 RMK A01 T01451068  RH  022%=      5-min Rain = 0
KCXS 131850Z 08007KT 15/M07 A3033 RMK A01 T01501067  RH  022%=      5-min Rain = 0
KCXS 131855Z 09005G10KT 15/M07 A3033 RMK A01 T01491067  RH  022%=      5-min Rain = 0
KCXS 131900Z 08006G12KT 15/M07 A3033 RMK A01 T01521066  RH  022%=      5-min Rain = 0
KCXS 131905Z 08005G10KT 15/M07 A3033 RMK A01 T01521065  RH  022%=      5-min Rain = 0
KCXS 131910Z 12005KT 15/M07 A3033 RMK A01 T01521065  RH  022%=      5-min Rain = 0
KCXS 131915Z 10005KT 15/M06 A3033 RMK A01 T01541063  RH  022%=      5-min Rain = 0
KCXS 131920Z 08006KT 16/M06 A3033 RMK A01 T01551063  RH  022%=      5-min Rain = 0
KCXS 131925Z 06006KT 16/M06 A3033 RMK A01 T01571063  RH  021%=      5-min Rain = 0
KCXS 131930Z 06005G10KT 16/M06 A3033 RMK A01 T01551064  RH  022%=      5-min Rain = 0
KCXS 131935Z 08006KT 16/M06 A3032 RMK A01 T01551062  RH  022%=      5-min Rain = 0
KCXS 131940Z 05008KT 16/M06 A3032 RMK A01 T01601062  RH  021%=      5-min Rain = 0
KCXS 131945Z 04009G16KT 16/M06 A3032 RMK A01 T01641061  RH  021%=      5-min Rain = 0
KCXS 131950Z 03006G12KT 16/M06 A3031 RMK A01 T01601061  RH  021%=      5-min Rain = 0
KCXS 131955Z 04008KT 16/M06 A3031 RMK A01 T01601061  RH  021%=      5-min Rain = 0
KCXS 132000Z 05006G12KT 16/M06 A3031 RMK A01 T01601061  RH  021%=      5-min Rain = 0
KCXS 132005Z 05008G13KT 16/M06 A3031 RMK A01 T01601060  RH  021%=      5-min Rain = 0
KCXS 132010Z 07006KT 16/M06 A3031 RMK A01 T01611060  RH  021%=      5-min Rain = 0
KCXS 132015Z 03007KT 16/M06 A303 RMK A01 T01641060  RH  021%=      5-min Rain = 0
KCXS 132020Z 04008G13KT 16/M06 A303 RMK A01 T01611060  RH  021%=      5-min Rain = 0
KCXS 132025Z 06007KT 16/M06 A303 RMK A01 T01611060  RH  021%=      5-min Rain = 0
KCXS 132030Z 03008G13KT 16/M06 A303 RMK A01 T01631059  RH  021%=      5-min Rain = 0
KCXS 132035Z 01008KT 16/M06 A3029 RMK A01 T01631059  RH  021%=      5-min Rain = 0
KCXS 132040Z 01008KT 16/M06 A3029 RMK A01 T01631060  RH  021%=      5-min Rain = 0
KCXS 132045Z 02007G12KT 16/M06 A3029 RMK A01 T01631060  RH  021%=      5-min Rain = 0
KCXS 132050Z 04007KT 16/M06 A3029 RMK A01 T01631061  RH  021%=      5-min Rain = 0
KCXS 132055Z 03007G12KT 16/M06 A3029 RMK A01 T01631061  RH  021%=      5-min Rain = 0
KCXS 132100Z 04006G13KT 17/M06 A3029 RMK A01 T01651062  RH  021%=      5-min Rain = 0
KCXS 132105Z 06009KT 17/M06 A3029 RMK A01 T01661063  RH  020%=      5-min Rain = 0
KCXS 132110Z 06010KT 17/M06 A3029 RMK A01 T01691064  RH  020%=      5-min Rain = 0
KCXS 132115Z 04005G11KT 17/M06 A3029 RMK A01 T01661063  RH  020%=      5-min Rain = 0
KCXS 132120Z 04005G11KT 17/M06 A3029 RMK A01 T01651063  RH  020%=      5-min Rain = 0
KCXS 132125Z 06008G13KT 17/M06 A3029 RMK A01 T01671063  RH  020%=      5-min Rain = 0
KCXS 132130Z 05008KT 17/M06 A3029 RMK A01 T01681064  RH  020%=      5-min Rain = 0
KCXS 132135Z 05005KT 17/M06 A3028 RMK A01 T01661064  RH  020%=      5-min Rain = 0
KCXS 132140Z 03008KT 17/M06 A3028 RMK A01 T01681064  RH  020%=      5-min Rain = 0
KCXS 132145Z 03006G14KT 17/M06 A3028 RMK A01 T01681064  RH  020%=      5-min Rain = 0
KCXS 132150Z 03006G14KT 17/M07 A3028 RMK A01 T01681065  RH  020%=      5-min Rain = 0
KCXS 132155Z 04009G14KT 17/M07 A3028 RMK A01 T01681065  RH  020%=      5-min Rain = 0
KCXS 132200Z 07008G13KT 17/M07 A3028 RMK A01 T01701065  RH  019%=      5-min Rain = 0
KCXS 132205Z 09005G11KT 17/M07 A3028 RMK A01 T01671066  RH  020%=      5-min Rain = 0
KCXS 132210Z 08009KT 17/M07 A3028 RMK A01 T01671067  RH  019%=      5-min Rain = 0
KCXS 132215Z 06008G13KT 17/M07 A3028 RMK A01 T01671068  RH  019%=      5-min Rain = 0
KCXS 132220Z 08010KT 17/M07 A3028 RMK A01 T01691068  RH  019%=      5-min Rain = 0
KCXS 132225Z 07011KT 17/M07 A3028 RMK A01 T01691068  RH  019%=      5-min Rain = 0
KCXS 132230Z 07008G14KT 17/M07 A3028 RMK A01 T01651068  RH  020%=      5-min Rain = 0
KCXS 132235Z 06010G15KT 17/M07 A3028 RMK A01 T01651068  RH  020%=      5-min Rain = 0
KCXS 132240Z 07008KT 16/M07 A3028 RMK A01 T01641068  RH  020%=      5-min Rain = 0
KCXS 132245Z 06011G18KT 16/M07 A3028 RMK A01 T01641069  RH  020%=      5-min Rain = 0
KCXS 132250Z 05012G17KT 16/M07 A3028 RMK A01 T01601069  RH  020%=      5-min Rain = 0
KCXS 132255Z 05012KT 16/M07 A3028 RMK A01 T01601069  RH  020%=      5-min Rain = 0
KCXS 132300Z 06013G18KT 16/M07 A3028 RMK A01 T01581070  RH  020%=      5-min Rain = 0
KCXS 132305Z 04011KT 16/M07 A3028 RMK A01 T01571069  RH  020%=      5-min Rain = 0
KCXS 132310Z 07011KT 16/M07 A3028 RMK A01 T01591069  RH  020%=      5-min Rain = 0
KCXS 132315Z 07012G17KT 16/M07 A3028 RMK A01 T01581069  RH  020%=      5-min Rain = 0
KCXS 132320Z 07012G18KT 16/M07 A3028 RMK A01 T01581069  RH  020%=      5-min Rain = 0
KCXS 132325Z 07011G16KT 16/M07 A3028 RMK A01 T01591069  RH  020%=      5-min Rain = 0
KCXS 132330Z 06013KT 16/M07 A3028 RMK A01 T01561071  RH  020%=      5-min Rain = 0
KCXS 132335Z 05013KT 15/M07 A3028 RMK A01 T01521071  RH  021%=      5-min Rain = 0
KCXS 132340Z 06014KT 15/M07 A3028 RMK A01 T01501071  RH  021%=      5-min Rain = 0
KCXS 132345Z 06013KT 15/M07 A3028 RMK A01 T01451071  RH  022%=      5-min Rain = 0
KCXS 132350Z 06011KT 14/M07 A3028 RMK A01 T01431071  RH  022%=      5-min Rain = 0
KCXS 132355Z 06012KT 14/M07 A3028 RMK A01 T01411071  RH  022%=      5-min Rain = 0
KCXS 140000Z 05012KT 14/M07 A3028 RMK A01 T01371070  RH  023%=      5-min Rain = 0
KCXS 140005Z 06010KT 13/M07 A3028 RMK A01 T01341069  RH  024%=      5-min Rain = 0
KCXS 140010Z 06009KT 13/M07 A3028 RMK A01 T01341068  RH  024%=      5-min Rain = 0
KCXS 140015Z 06009G14KT 14/M07 A3028 RMK A01 T01351067  RH  024%=      5-min Rain = 0
KCXS 140020Z 07010KT 13/M07 A3028 RMK A01 T01341066  RH  024%=      5-min Rain = 0
KCXS 140025Z 06008G13KT 13/M07 A3028 RMK A01 T01321066  RH  025%=      5-min Rain = 0
KCXS 140030Z 06009KT 13/M07 A3028 RMK A01 T01311066  RH  025%=      5-min Rain = 0
KCXS 140035Z 06007KT 13/M07 A3028 RMK A01 T01291066  RH  025%=      5-min Rain = 0
KCXS 140040Z 06009KT 13/M07 A3029 RMK A01 T01271066  RH  025%=      5-min Rain = 0
KCXS 140045Z 06009KT 13/M07 A3029 RMK A01 T01251066  RH  026%=      5-min Rain = 0
KCXS 140050Z 06008KT 12/M07 A3029 RMK A01 T01221066  RH  026%=      5-min Rain = 0
KCXS 140055Z 06010KT 12/M07 A3029 RMK A01 T01211066  RH  026%=      5-min Rain = 0
KCXS 140100Z 06009KT 12/M07 A3029 RMK A01 T01201067  RH  027%=      5-min Rain = 0
KCXS 140105Z 06008KT 12/M07 A3029 RMK A01 T01181067  RH  027%=      5-min Rain = 0
KCXS 140110Z 07008KT 12/M07 A3029 RMK A01 T01171067  RH  027%=      5-min Rain = 0
KCXS 140115Z 08007KT 12/M07 A3029 RMK A01 T01151067  RH  027%=      5-min Rain = 0
KCXS 140120Z 08007KT 11/M07 A3029 RMK A01 T01131067  RH  028%=      5-min Rain = 0
KCXS 140125Z 08006KT 11/M07 A3029 RMK A01 T01091067  RH  028%=      5-min Rain = 0
KCXS 140130Z 09006KT 11/M07 A3029 RMK A01 T01061068  RH  029%=      5-min Rain = 0
KCXS 140135Z 08006KT 10/M07 A303 RMK A01 T01021069  RH  029%=      5-min Rain = 0
KCXS 140140Z 08006KT 10/M07 A303 RMK A01 T00991068  RH  030%=      5-min Rain = 0
KCXS 140145Z 08007KT 10/M07 A303 RMK A01 T00981069  RH  030%=      5-min Rain = 0
KCXS 140150Z 08007KT 10/M07 A303 RMK A01 T00971070  RH  030%=      5-min Rain = 0
KCXS 140155Z 08007KT 10/M07 A303 RMK A01 T00961070  RH  030%=      5-min Rain = 0
KCXS 140200Z 08007KT 10/M07 A303 RMK A01 T00951070  RH  031%=      5-min Rain = 0
KCXS 140205Z 08006KT 09/M07 A303 RMK A01 T00941070  RH  031%=      5-min Rain = 0
KCXS 140210Z 07006KT 09/M07 A3031 RMK A01 T00931070  RH  031%=      5-min Rain = 0
KCXS 140215Z 08007KT 09/M07 A3031 RMK A01 T00921069  RH  031%=      5-min Rain = 0
KCXS 140220Z 09006KT 09/M07 A3031 RMK A01 T00901069  RH  032%=      5-min Rain = 0
KCXS 140225Z 09006KT 09/M07 A3031 RMK A01 T00891069  RH  032%=      5-min Rain = 0
KCXS 140230Z 09006KT 09/M07 A3031 RMK A01 T00861069  RH  032%=      5-min Rain = 0
KCXS 140235Z 08006KT 08/M07 A3031 RMK A01 T00841070  RH  033%=      5-min Rain = 0
KCXS 140240Z 09007KT 08/M07 A3031 RMK A01 T00811069  RH  034%=      5-min Rain = 0
KCXS 140245Z 09006KT 08/M07 A3031 RMK A01 T00791070  RH  034%=      5-min Rain = 0
KCXS 140250Z 10006KT 08/M07 A3032 RMK A01 T00781070  RH  034%=      5-min Rain = 0
KCXS 140255Z 10006KT 08/M07 A3032 RMK A01 T00761071  RH  034%=      5-min Rain = 0
KCXS 140300Z 09007KT 08/M07 A3032 RMK A01 T00751071  RH  035%=      5-min Rain = 0
KCXS 140305Z 09007KT 08/M07 A3032 RMK A01 T00751071  RH  035%=      5-min Rain = 0
KCXS 140310Z 10006KT 07/M07 A3032 RMK A01 T00741072  RH  035%=      5-min Rain = 0
KCXS 140315Z 12006KT 07/M07 A3032 RMK A01 T00741071  RH  035%=      5-min Rain = 0
KCXS 140320Z 11007KT 07/M07 A3032 RMK A01 T00731070  RH  035%=      5-min Rain = 0
KCXS 140325Z 11007KT 07/M07 A3032 RMK A01 T00711070  RH  036%=      5-min Rain = 0
KCXS 140330Z 10007KT 07/M07 A3032 RMK A01 T00711070  RH  036%=      5-min Rain = 0
KCXS 140335Z 10007KT 07/M07 A3032 RMK A01 T00721069  RH  036%=      5-min Rain = 0
KCXS 140340Z 11007KT 07/M07 A3032 RMK A01 T00731069  RH  036%=      5-min Rain = 0
KCXS 140345Z 11007KT 07/M07 A3032 RMK A01 T00721069  RH  036%=      5-min Rain = 0
KCXS 140350Z 11007KT 07/M07 A3032 RMK A01 T00721069  RH  036%=      5-min Rain = 0
KCXS 140355Z 11008KT 07/M07 A3032 RMK A01 T00711069  RH  036%=      5-min Rain = 0
KCXS 140400Z 11007KT 07/M07 A3032 RMK A01 T00691069  RH  037%=      5-min Rain = 0
KCXS 140405Z 12007KT 07/M07 A3032 RMK A01 T00691070  RH  037%=      5-min Rain = 0
KCXS 140410Z 13006KT 07/M07 A3032 RMK A01 T00671071  RH  037%=      5-min Rain = 0
KCXS 140415Z 14006KT 07/M07 A3032 RMK A01 T00651070  RH  037%=      5-min Rain = 0
KCXS 140420Z 14007KT 06/M07 A3032 RMK A01 T00611069  RH  039%=      5-min Rain = 0
KCXS 140425Z 14007KT 06/M07 A3032 RMK A01 T00581069  RH  040%=      5-min Rain = 0
KCXS 140430Z 14007KT 06/M07 A3032 RMK A01 T00591068  RH  040%=      5-min Rain = 0
KCXS 140435Z 14007KT 06/M07 A3032 RMK A01 T00591068  RH  040%=      5-min Rain = 0
KCXS 140440Z 14007KT 06/M07 A3032 RMK A01 T00561068  RH  040%=      5-min Rain = 0
KCXS 140445Z 14007KT 06/M07 A3032 RMK A01 T00581067  RH  040%=      5-min Rain = 0
KCXS 140450Z 14007KT 06/M07 A3032 RMK A01 T00571066  RH  041%=      5-min Rain = 0
KCXS 140455Z 15007KT 05/M07 A3032 RMK A01 T00541067  RH  041%=      5-min Rain = 0
KCXS 140500Z 14008KT 05/M07 A3032 RMK A01 T00541067  RH  041%=      5-min Rain = 0

Page generated in 0.0273 seconds.